Fjordprinsessen — LJVE — position and weather

sailwx.info

Track history (hours):
 
Tides and Currents Weather Stations Pressure Air Temp Water Temp Dewpoint Dewpoint Depression Visibility Wind Speed Wind Dir Waves Ship Positions

Fjordprinsessen

Last reported at 2014-Oct-25 09:30 UTC. Time now 2014-Oct-25 10:12 UTC.
Position N 69°39' E 018°57'.

Length 30 m; draft 2.5 m.

Type: High speed craft. MMSI: 259604000.

Date/timePositionNaut miles runAvg speedWind from/ knotsBaromVisibWave heightAir tempDewpointWater temp
2014-Oct-25 09:30N 69°39' E 018°57'0 0.0
2014-Oct-25 08:33N 69°39' E 018°57'0 0.0
2014-Oct-25 07:27N 69°39' E 018°57'0 0.0
2014-Oct-25 06:33N 69°39' E 018°57'0 0.0
2014-Oct-25 05:24N 69°39' E 018°57'0 0.0
2014-Oct-25 04:33N 69°39' E 018°57'0 0.0
2014-Oct-25 03:33N 69°39' E 018°57'0 0.0
2014-Oct-25 02:30N 69°39' E 018°57'0 0.0
2014-Oct-25 01:33N 69°39' E 018°57'0 0.0
2014-Oct-25 00:33N 69°39' E 018°57'0 0.0
2014-Oct-24 23:30N 69°39' E 018°57'0 0.0
2014-Oct-24 22:33N 69°39' E 018°57'0 0.0
2014-Oct-24 21:33N 69°39' E 018°57'7 1.3
2014-Oct-24 16:26N 69°45' E 019°06'14 6.6
2014-Oct-24 14:21N 69°33' E 018°46'7 9.1
2014-Oct-24 13:33N 69°39' E 018°57'0 0.0
2014-Oct-24 12:30N 69°39' E 018°57'0 0.0
2014-Oct-24 11:30N 69°39' E 018°57'0 0.0
2014-Oct-24 10:33N 69°39' E 018°57'0 0.0
2014-Oct-24 09:32N 69°39' E 018°57'0 0.0
2014-Oct-24 08:32N 69°39' E 018°57'0 0.0
2014-Oct-24 07:32N 69°39' E 018°57'7 3.4
2014-Oct-24 05:29N 69°33' E 018°45'7 7.4
2014-Oct-24 04:33N 69°39' E 018°57'0 0.0
2014-Oct-24 03:30N 69°39' E 018°57'0 0.0
2014-Oct-24 02:33N 69°39' E 018°57'0 0.0
2014-Oct-24 01:33N 69°39' E 018°57'0 0.0
2014-Oct-24 00:33N 69°39' E 018°57'0 0.0
2014-Oct-23 23:33N 69°39' E 018°57'0 0.0
2014-Oct-23 22:32N 69°39' E 018°57'0 0.0
2014-Oct-23 21:23N 69°39' E 018°57'0 0.0
2014-Oct-23 20:31N 69°39' E 018°57'0 0.0
2014-Oct-23 19:29N 69°39' E 018°57'0 0.0
2014-Oct-23 18:32N 69°39' E 018°57'0 0.0
2014-Oct-23 17:32N 69°39' E 018°57'0 0.0
2014-Oct-23 16:32N 69°39' E 018°57'0 0.0
2014-Oct-23 15:29N 69°39' E 018°57'0 0.0
2014-Oct-23 14:29N 69°39' E 018°57'0 0.0
2014-Oct-23 13:32N 69°39' E 018°57'0 0.0
2014-Oct-23 12:32N 69°39' E 018°57'0 0.0
2014-Oct-23 11:29N 69°39' E 018°57'0 0.0
2014-Oct-23 10:29N 69°39' E 018°57'0 0.0
2014-Oct-23 09:32N 69°39' E 018°57'0 0.0
2014-Oct-23 08:31N 69°39' E 018°57'0 0.0
2014-Oct-23 07:31N 69°39' E 018°57'0 0.0
2014-Oct-23 06:28N 69°39' E 018°57'0 0.0
2014-Oct-23 05:31N 69°39' E 018°57'0 0.0
2014-Oct-23 04:28N 69°39' E 018°57'0 0.0
2014-Oct-23 03:31N 69°39' E 018°57'0 0.0
2014-Oct-23 02:31N 69°39' E 018°57'0 0.0
2014-Oct-23 01:28N 69°39' E 018°57'0 0.0
2014-Oct-23 00:25N 69°39' E 018°57'0 0.0
2014-Oct-22 23:31N 69°39' E 018°57'0 0.0
2014-Oct-22 22:30N 69°39' E 018°57'0 0.0
2014-Oct-22 21:30N 69°39' E 018°57'0 0.0
2014-Oct-22 20:24N 69°39' E 018°57'0 0.0
2014-Oct-22 19:33N 69°39' E 018°57'0 0.0
2014-Oct-22 18:33N 69°39' E 018°57'0 0.0
2014-Oct-22 17:27N 69°39' E 018°57'0 0.0
2014-Oct-22 16:33N 69°39' E 018°57'4 1.8
2014-Oct-22 14:13N 69°35' E 018°51'4 5.6
2014-Oct-22 13:28N 69°39' E 018°57'0 0.0
2014-Oct-22 12:19N 69°39' E 018°57'0 0.0
2014-Oct-22 11:31N 69°39' E 018°57'0 0.0
2014-Oct-22 10:25N 69°39' E 018°57'0 0.0
2014-Oct-22 09:31N 69°39' E 018°57'0 0.0
2014-Oct-22 08:28N 69°39' E 018°57'0 0.0
2014-Oct-22 07:31N 69°39' E 018°57'6 2.8
2014-Oct-22 05:24N 69°34' E 018°48'6 6.6
2014-Oct-22 04:31N 69°39' E 018°57'0 0.0
2014-Oct-22 03:28N 69°39' E 018°57'0 0.0
2014-Oct-22 02:31N 69°39' E 018°57'0 0.0
2014-Oct-22 01:31N 69°39' E 018°57'0 0.0
2014-Oct-22 00:31N 69°39' E 018°57'0 0.0
2014-Oct-21 23:28N 69°39' E 018°57'0 0.0
2014-Oct-21 22:31N 69°39' E 018°57'0 0.0
2014-Oct-21 21:28N 69°39' E 018°57'0 0.0
2014-Oct-21 20:25N 69°39' E 018°57'0 0.0
2014-Oct-21 19:31N 69°39' E 018°57'0 0.0
2014-Oct-21 18:25N 69°39' E 018°57'6 1.4
2014-Oct-21 14:14N 69°44' E 019°05'6 6.7
2014-Oct-21 13:21N 69°39' E 018°57'0 0.0
2014-Oct-21 12:30N 69°39' E 018°57'0 0.0
2014-Oct-21 11:30N 69°39' E 018°57'0 0.0
2014-Oct-21 10:33N 69°39' E 018°57'0 0.0
2014-Oct-21 09:33N 69°39' E 018°57'0 0.0
2014-Oct-21 08:33N 69°39' E 018°57'0 0.0
2014-Oct-20 17:33N 69°39' E 018°58'0 0.4
2014-Oct-20 16:33N 69°39' E 018°57'5 2.1
2014-Oct-20 14:12N 69°35' E 018°50'5 7.1
2014-Oct-20 13:31N 69°39' E 018°57'0 0.0
2014-Oct-20 12:31N 69°39' E 018°57'0 0.0
2014-Oct-20 11:31N 69°39' E 018°57'0 0.0
2014-Oct-20 10:31N 69°39' E 018°57'0 0.0
2014-Oct-20 09:31N 69°39' E 018°57'0 0.0
2014-Oct-20 08:25N 69°39' E 018°57'0 0.0
2014-Oct-20 07:31N 69°39' E 018°57'5 2.5
2014-Oct-20 05:22N 69°34' E 018°48'5 6.5
2014-Oct-20 04:33N 69°39' E 018°57'0 0.0
2014-Oct-20 03:33N 69°39' E 018°57'0 0.0
2014-Oct-20 02:33N 69°39' E 018°57'0 0.0
2014-Oct-20 01:30N 69°39' E 018°57'0 0.0
2014-Oct-20 00:30N 69°39' E 018°57'0 0.0
2014-Oct-19 23:33N 69°39' E 018°57'0 0.0
2014-Oct-19 22:27N 69°39' E 018°57'0 0.0
2014-Oct-19 21:33N 69°39' E 018°57'0 0.0
2014-Oct-19 20:30N 69°39' E 018°57'6 3.1
2014-Oct-19 18:34N 69°34' E 018°47'6 1.0
2014-Oct-19 12:30N 69°39' E 018°57'0 0.0
2014-Oct-19 11:33N 69°39' E 018°57'0 0.0
2014-Oct-19 10:33N 69°39' E 018°57'0 0.0
2014-Oct-19 09:33N 69°39' E 018°57'0 0.0
2014-Oct-19 08:21N 69°39' E 018°57'0 0.0
2014-Oct-19 07:33N 69°39' E 018°57'0 0.0
2014-Oct-19 06:24N 69°39' E 018°57'0 0.0
2014-Oct-19 05:33N 69°39' E 018°57'0 0.0
2014-Oct-19 04:30N 69°39' E 018°57'0 0.0
2014-Oct-19 03:33N 69°39' E 018°57'0 0.0
2014-Oct-19 02:33N 69°39' E 018°57'0 0.0
2014-Oct-19 01:30N 69°39' E 018°57'0 0.0
2014-Oct-19 00:33N 69°39' E 018°57'0 0.0
2014-Oct-18 23:27N 69°39' E 018°57'0 0.0
2014-Oct-18 22:29N 69°39' E 018°57'0 0.0
2014-Oct-18 21:29N 69°39' E 018°57'0 0.0
2014-Oct-18 20:20N 69°39' E 018°57'0 0.0
2014-Oct-18 19:32N 69°39' E 018°57'0 0.0
2014-Oct-18 18:32N 69°39' E 018°57'0 0.0
2014-Oct-18 17:26N 69°39' E 018°57'0 0.0
2014-Oct-18 16:32N 69°39' E 018°57'0 0.0
2014-Oct-18 15:26N 69°39' E 018°57'0 0.0
2014-Oct-18 14:29N 69°39' E 018°57'0 0.0
2014-Oct-18 13:32N 69°39' E 018°57'0 0.0
2014-Oct-18 12:32N 69°39' E 018°57'0 0.0
2014-Oct-18 11:23N 69°39' E 018°57'0 0.0
2014-Oct-18 10:29N 69°39' E 018°57'0 0.0
2014-Oct-18 09:31N 69°39' E 018°57'0 0.0
2014-Oct-18 08:31N 69°39' E 018°57'0 0.0
2014-Oct-18 07:28N 69°39' E 018°57'0 0.0
2014-Oct-18 06:28N 69°39' E 018°57'0 0.0
2014-Oct-18 05:22N 69°39' E 018°57'0 0.0
2014-Oct-18 04:31N 69°39' E 018°57'0 0.0
2014-Oct-18 03:31N 69°39' E 018°57'0 0.0
2014-Oct-18 02:31N 69°39' E 018°57'0 0.0
2014-Oct-18 01:28N 69°39' E 018°57'0 0.0
2014-Oct-18 00:28N 69°39' E 018°57'0 0.0
2014-Oct-17 23:28N 69°39' E 018°57'0 0.0
2014-Oct-17 22:31N 69°39' E 018°57'0 0.0
2014-Oct-17 21:28N 69°39' E 018°57'6 1.2
2014-Oct-17 16:27N 69°44' E 019°05'11 4.8
2014-Oct-17 14:12N 69°35' E 018°50'5 7.2
2014-Oct-17 13:33N 69°39' E 018°57'0 0.0
2014-Oct-17 12:27N 69°39' E 018°57'0 0.0
2014-Oct-17 11:33N 69°39' E 018°57'0 0.0
2014-Oct-17 10:30N 69°39' E 018°57'0 0.0
2014-Oct-17 09:33N 69°39' E 018°57'0 0.0
2014-Oct-17 08:33N 69°39' E 018°57'0 0.0
2014-Oct-17 07:33N 69°39' E 018°57'5 2.1
2014-Oct-17 05:21N 69°35' E 018°50'5 5.3
2014-Oct-17 04:29N 69°39' E 018°57'0 0.0
2014-Oct-17 03:29N 69°39' E 018°57'0 0.0
2014-Oct-17 02:29N 69°39' E 018°57'0 0.0
2014-Oct-17 01:29N 69°39' E 018°57'0 0.0
2014-Oct-17 00:29N 69°39' E 018°57'0 0.0
2014-Oct-16 23:32N 69°39' E 018°57'0 0.0
2014-Oct-16 22:32N 69°39' E 018°57'0 0.0
2014-Oct-16 21:28N 69°39' E 018°57'0 0.0
2014-Oct-16 20:25N 69°39' E 018°57'0 0.0
2014-Oct-16 19:28N 69°39' E 018°57'0 0.0
2014-Oct-16 18:31N 69°39' E 018°57'5 1.3
2014-Oct-16 14:13N 69°44' E 019°05'5 7.4
2014-Oct-16 13:28N 69°39' E 018°57'0 0.0
2014-Oct-16 12:31N 69°39' E 018°57'0 0.0
2014-Oct-16 11:28N 69°39' E 018°57'0 0.0
2014-Oct-16 10:31N 69°39' E 018°57'0 0.0
2014-Oct-16 09:31N 69°39' E 018°57'0 0.0
2014-Oct-16 08:31N 69°39' E 018°57'5 0.4
2014-Oct-15 17:32N 69°44' E 019°05'6 6.2
2014-Oct-15 16:33N 69°38' E 018°57'4 1.7
2014-Oct-15 14:11N 69°35' E 018°51'5 6.3
2014-Oct-15 13:28N 69°39' E 018°57'0 0.0
2014-Oct-15 12:31N 69°39' E 018°57'0 0.0
2014-Oct-15 11:31N 69°39' E 018°57'0 0.0
2014-Oct-15 10:19N 69°39' E 018°57'0 0.0
2014-Oct-15 09:31N 69°39' E 018°57'  
Track history (hours):
 
Tides and Currents Weather Stations Pressure Air Temp Water Temp Dewpoint Dewpoint Depression Visibility Wind Speed Wind Dir Waves Ship Positions

Fjordprinsessen

Last reported at 2014-Oct-25 09:30 UTC. Time now 2014-Oct-25 10:12 UTC.
Position N 69°39' E 018°57'.

Length 30 m; draft 2.5 m.

Type: High speed craft. MMSI: 259604000.

Date/timePositionNaut miles runAvg speedWind from/ knotsBaromVisibWave heightAir tempDewpointWater temp
2014-Oct-25 09:30N 69°39' E 018°57'0 0.0
2014-Oct-25 08:33N 69°39' E 018°57'0 0.0
2014-Oct-25 07:27N 69°39' E 018°57'0 0.0
2014-Oct-25 06:33N 69°39' E 018°57'0 0.0
2014-Oct-25 05:24N 69°39' E 018°57'0 0.0
2014-Oct-25 04:33N 69°39' E 018°57'0 0.0
2014-Oct-25 03:33N 69°39' E 018°57'0 0.0
2014-Oct-25 02:30N 69°39' E 018°57'0 0.0
2014-Oct-25 01:33N 69°39' E 018°57'0 0.0
2014-Oct-25 00:33N 69°39' E 018°57'0 0.0
2014-Oct-24 23:30N 69°39' E 018°57'0 0.0
2014-Oct-24 22:33N 69°39' E 018°57'0 0.0
2014-Oct-24 21:33N 69°39' E 018°57'7 1.3
2014-Oct-24 16:26N 69°45' E 019°06'14 6.6
2014-Oct-24 14:21N 69°33' E 018°46'7 9.1
2014-Oct-24 13:33N 69°39' E 018°57'0 0.0
2014-Oct-24 12:30N 69°39' E 018°57'0 0.0
2014-Oct-24 11:30N 69°39' E 018°57'0 0.0
2014-Oct-24 10:33N 69°39' E 018°57'0 0.0
2014-Oct-24 09:32N 69°39' E 018°57'0 0.0
2014-Oct-24 08:32N 69°39' E 018°57'0 0.0
2014-Oct-24 07:32N 69°39' E 018°57'7 3.4
2014-Oct-24 05:29N 69°33' E 018°45'7 7.4
2014-Oct-24 04:33N 69°39' E 018°57'0 0.0
2014-Oct-24 03:30N 69°39' E 018°57'0 0.0
2014-Oct-24 02:33N 69°39' E 018°57'0 0.0
2014-Oct-24 01:33N 69°39' E 018°57'0 0.0
2014-Oct-24 00:33N 69°39' E 018°57'0 0.0
2014-Oct-23 23:33N 69°39' E 018°57'0 0.0
2014-Oct-23 22:32N 69°39' E 018°57'0 0.0
2014-Oct-23 21:23N 69°39' E 018°57'0 0.0
2014-Oct-23 20:31N 69°39' E 018°57'0 0.0
2014-Oct-23 19:29N 69°39' E 018°57'0 0.0
2014-Oct-23 18:32N 69°39' E 018°57'0 0.0
2014-Oct-23 17:32N 69°39' E 018°57'0 0.0
2014-Oct-23 16:32N 69°39' E 018°57'0 0.0
2014-Oct-23 15:29N 69°39' E 018°57'0 0.0
2014-Oct-23 14:29N 69°39' E 018°57'0 0.0
2014-Oct-23 13:32N 69°39' E 018°57'0 0.0
2014-Oct-23 12:32N 69°39' E 018°57'0 0.0
2014-Oct-23 11:29N 69°39' E 018°57'0 0.0
2014-Oct-23 10:29N 69°39' E 018°57'0 0.0
2014-Oct-23 09:32N 69°39' E 018°57'0 0.0
2014-Oct-23 08:31N 69°39' E 018°57'0 0.0
2014-Oct-23 07:31N 69°39' E 018°57'0 0.0
2014-Oct-23 06:28N 69°39' E 018°57'0 0.0
2014-Oct-23 05:31N 69°39' E 018°57'0 0.0
2014-Oct-23 04:28N 69°39' E 018°57'0 0.0
2014-Oct-23 03:31N 69°39' E 018°57'0 0.0
2014-Oct-23 02:31N 69°39' E 018°57'0 0.0
2014-Oct-23 01:28N 69°39' E 018°57'0 0.0
2014-Oct-23 00:25N 69°39' E 018°57'0 0.0
2014-Oct-22 23:31N 69°39' E 018°57'0 0.0
2014-Oct-22 22:30N 69°39' E 018°57'0 0.0
2014-Oct-22 21:30N 69°39' E 018°57'0 0.0
2014-Oct-22 20:24N 69°39' E 018°57'0 0.0
2014-Oct-22 19:33N 69°39' E 018°57'0 0.0
2014-Oct-22 18:33N 69°39' E 018°57'0 0.0
2014-Oct-22 17:27N 69°39' E 018°57'0 0.0
2014-Oct-22 16:33N 69°39' E 018°57'4 1.8
2014-Oct-22 14:13N 69°35' E 018°51'4 5.6
2014-Oct-22 13:28N 69°39' E 018°57'0 0.0
2014-Oct-22 12:19N 69°39' E 018°57'0 0.0
2014-Oct-22 11:31N 69°39' E 018°57'0 0.0
2014-Oct-22 10:25N 69°39' E 018°57'0 0.0
2014-Oct-22 09:31N 69°39' E 018°57'0 0.0
2014-Oct-22 08:28N 69°39' E 018°57'0 0.0
2014-Oct-22 07:31N 69°39' E 018°57'6 2.8
2014-Oct-22 05:24N 69°34' E 018°48'6 6.6
2014-Oct-22 04:31N 69°39' E 018°57'0 0.0
2014-Oct-22 03:28N 69°39' E 018°57'0 0.0
2014-Oct-22 02:31N 69°39' E 018°57'0 0.0
2014-Oct-22 01:31N 69°39' E 018°57'0 0.0
2014-Oct-22 00:31N 69°39' E 018°57'0 0.0
2014-Oct-21 23:28N 69°39' E 018°57'0 0.0
2014-Oct-21 22:31N 69°39' E 018°57'0 0.0
2014-Oct-21 21:28N 69°39' E 018°57'0 0.0
2014-Oct-21 20:25N 69°39' E 018°57'0 0.0
2014-Oct-21 19:31N 69°39' E 018°57'0 0.0
2014-Oct-21 18:25N 69°39' E 018°57'6 1.4
2014-Oct-21 14:14N 69°44' E 019°05'6 6.7
2014-Oct-21 13:21N 69°39' E 018°57'0 0.0
2014-Oct-21 12:30N 69°39' E 018°57'0 0.0
2014-Oct-21 11:30N 69°39' E 018°57'0 0.0
2014-Oct-21 10:33N 69°39' E 018°57'0 0.0
2014-Oct-21 09:33N 69°39' E 018°57'0 0.0
2014-Oct-21 08:33N 69°39' E 018°57'0 0.0
2014-Oct-20 17:33N 69°39' E 018°58'0 0.4
2014-Oct-20 16:33N 69°39' E 018°57'5 2.1
2014-Oct-20 14:12N 69°35' E 018°50'5 7.1
2014-Oct-20 13:31N 69°39' E 018°57'0 0.0
2014-Oct-20 12:31N 69°39' E 018°57'0 0.0
2014-Oct-20 11:31N 69°39' E 018°57'0 0.0
2014-Oct-20 10:31N 69°39' E 018°57'0 0.0
2014-Oct-20 09:31N 69°39' E 018°57'0 0.0
2014-Oct-20 08:25N 69°39' E 018°57'0 0.0
2014-Oct-20 07:31N 69°39' E 018°57'5 2.5
2014-Oct-20 05:22N 69°34' E 018°48'5 6.5
2014-Oct-20 04:33N 69°39' E 018°57'0 0.0
2014-Oct-20 03:33N 69°39' E 018°57'0 0.0
2014-Oct-20 02:33N 69°39' E 018°57'0 0.0
2014-Oct-20 01:30N 69°39' E 018°57'0 0.0
2014-Oct-20 00:30N 69°39' E 018°57'0 0.0
2014-Oct-19 23:33N 69°39' E 018°57'0 0.0
2014-Oct-19 22:27N 69°39' E 018°57'0 0.0
2014-Oct-19 21:33N 69°39' E 018°57'0 0.0
2014-Oct-19 20:30N 69°39' E 018°57'6 3.1
2014-Oct-19 18:34N 69°34' E 018°47'6 1.0
2014-Oct-19 12:30N 69°39' E 018°57'0 0.0
2014-Oct-19 11:33N 69°39' E 018°57'0 0.0
2014-Oct-19 10:33N 69°39' E 018°57'0 0.0
2014-Oct-19 09:33N 69°39' E 018°57'0 0.0
2014-Oct-19 08:21N 69°39' E 018°57'0 0.0
2014-Oct-19 07:33N 69°39' E 018°57'0 0.0
2014-Oct-19 06:24N 69°39' E 018°57'0 0.0
2014-Oct-19 05:33N 69°39' E 018°57'0 0.0
2014-Oct-19 04:30N 69°39' E 018°57'0 0.0
2014-Oct-19 03:33N 69°39' E 018°57'0 0.0
2014-Oct-19 02:33N 69°39' E 018°57'0 0.0
2014-Oct-19 01:30N 69°39' E 018°57'0 0.0
2014-Oct-19 00:33N 69°39' E 018°57'0 0.0
2014-Oct-18 23:27N 69°39' E 018°57'0 0.0
2014-Oct-18 22:29N 69°39' E 018°57'0 0.0
2014-Oct-18 21:29N 69°39' E 018°57'0 0.0
2014-Oct-18 20:20N 69°39' E 018°57'0 0.0
2014-Oct-18 19:32N 69°39' E 018°57'0 0.0
2014-Oct-18 18:32N 69°39' E 018°57'0 0.0
2014-Oct-18 17:26N 69°39' E 018°57'0 0.0
2014-Oct-18 16:32N 69°39' E 018°57'0 0.0
2014-Oct-18 15:26N 69°39' E 018°57'0 0.0
2014-Oct-18 14:29N 69°39' E 018°57'0 0.0
2014-Oct-18 13:32N 69°39' E 018°57'0 0.0
2014-Oct-18 12:32N 69°39' E 018°57'0 0.0
2014-Oct-18 11:23N 69°39' E 018°57'0 0.0
2014-Oct-18 10:29N 69°39' E 018°57'0 0.0
2014-Oct-18 09:31N 69°39' E 018°57'0 0.0
2014-Oct-18 08:31N 69°39' E 018°57'0 0.0
2014-Oct-18 07:28N 69°39' E 018°57'0 0.0
2014-Oct-18 06:28N 69°39' E 018°57'0 0.0
2014-Oct-18 05:22N 69°39' E 018°57'0 0.0
2014-Oct-18 04:31N 69°39' E 018°57'0 0.0
2014-Oct-18 03:31N 69°39' E 018°57'0 0.0
2014-Oct-18 02:31N 69°39' E 018°57'0 0.0
2014-Oct-18 01:28N 69°39' E 018°57'0 0.0
2014-Oct-18 00:28N 69°39' E 018°57'0 0.0
2014-Oct-17 23:28N 69°39' E 018°57'0 0.0
2014-Oct-17 22:31N 69°39' E 018°57'0 0.0
2014-Oct-17 21:28N 69°39' E 018°57'6 1.2
2014-Oct-17 16:27N 69°44' E 019°05'11 4.8
2014-Oct-17 14:12N 69°35' E 018°50'5 7.2
2014-Oct-17 13:33N 69°39' E 018°57'0 0.0
2014-Oct-17 12:27N 69°39' E 018°57'0 0.0
2014-Oct-17 11:33N 69°39' E 018°57'0 0.0
2014-Oct-17 10:30N 69°39' E 018°57'0 0.0
2014-Oct-17 09:33N 69°39' E 018°57'0 0.0
2014-Oct-17 08:33N 69°39' E 018°57'0 0.0
2014-Oct-17 07:33N 69°39' E 018°57'5 2.1
2014-Oct-17 05:21N 69°35' E 018°50'5 5.3
2014-Oct-17 04:29N 69°39' E 018°57'0 0.0
2014-Oct-17 03:29N 69°39' E 018°57'0 0.0
2014-Oct-17 02:29N 69°39' E 018°57'0 0.0
2014-Oct-17 01:29N 69°39' E 018°57'0 0.0
2014-Oct-17 00:29N 69°39' E 018°57'0 0.0
2014-Oct-16 23:32N 69°39' E 018°57'0 0.0
2014-Oct-16 22:32N 69°39' E 018°57'0 0.0
2014-Oct-16 21:28N 69°39' E 018°57'0 0.0
2014-Oct-16 20:25N 69°39' E 018°57'0 0.0
2014-Oct-16 19:28N 69°39' E 018°57'0 0.0
2014-Oct-16 18:31N 69°39' E 018°57'5 1.3
2014-Oct-16 14:13N 69°44' E 019°05'5 7.4
2014-Oct-16 13:28N 69°39' E 018°57'0 0.0
2014-Oct-16 12:31N 69°39' E 018°57'0 0.0
2014-Oct-16 11:28N 69°39' E 018°57'0 0.0
2014-Oct-16 10:31N 69°39' E 018°57'0 0.0
2014-Oct-16 09:31N 69°39' E 018°57'0 0.0
2014-Oct-16 08:31N 69°39' E 018°57'5 0.4
2014-Oct-15 17:32N 69°44' E 019°05'6 6.2
2014-Oct-15 16:33N 69°38' E 018°57'4 1.7
2014-Oct-15 14:11N 69°35' E 018°51'5 6.3
2014-Oct-15 13:28N 69°39' E 018°57'0 0.0
2014-Oct-15 12:31N 69°39' E 018°57'0 0.0
2014-Oct-15 11:31N 69°39' E 018°57'0 0.0
2014-Oct-15 10:19N 69°39' E 018°57'0 0.0
2014-Oct-15 09:31N 69°39' E 018°57'  

Dump ship's entire track history